YMAV

Avalon Airport

Melbourne, Australia
TAF AMD YMAV 190459Z 1905/2006 01016G26KT CAVOK FM191400 26018G34KT 9999 -SHRA SCT090 FM191600 25016KT 9999 -SHRA SCT020 BKN090 FM192300 25014KT 9999 -SHRA FEW025 BKN040 FM200300 18016KT 9999 -SHRA SCT030 BKN040 INTER 1916/1921 4000 SHRA BKN020
Issued Valid From Valid To
Oct-19 @ 04:59 UTC
(4 hours ago)
Oct-19 @ 05:00 UTC
(4 hours ago)
Oct-20 @ 06:00 UTC
(in 21 hours)
Oct-19 @ 05:00 to Oct-19 @ 14:00
TAF AMD YMAV 190459Z 1905/2006 01016G26KT CAVOK
Wind Visibility Clouds Conditions
10° at 16 knots
 Gusting to 26 knots
10,000+ meters
  • No significant clouds
From Oct-19 @ 14:00 to Oct-19 @ 16:00
FM191400 26018G34KT 9999 -SHRA SCT090
Wind Visibility Clouds Conditions
260° at 18 knots
 Gusting to 34 knots
10,000+ meters
  • Scattered at 9,000' AGL
  • Light Rain
Temporary Oct-19 @ 16:00 to Oct-19 @ 21:00
INTER 1916/1921 4000 SHRA BKN020
Visibility Clouds Conditions
4,007 meters
  • Broken at 2,000' AGL
  • Rain
From Oct-19 @ 16:00 to Oct-19 @ 23:00
FM191600 25016KT 9999 -SHRA SCT020 BKN090
Wind Visibility Clouds Conditions
250° at 16 knots 10,000+ meters
  • Scattered at 2,000' AGL
  • Broken at 9,000' AGL
  • Light Rain
From Oct-19 @ 23:00 to Oct-20 @ 03:00
FM192300 25014KT 9999 -SHRA FEW025 BKN040
Wind Visibility Clouds Conditions
250° at 14 knots 10,000+ meters
  • Few at 2,500' AGL
  • Broken at 4,000' AGL
  • Light Rain
From Oct-20 @ 03:00 to Oct-20 @ 06:00
FM200300 18016KT 9999 -SHRA SCT030 BKN040
Wind Visibility Clouds Conditions
180° at 16 knots 10,000+ meters
  • Scattered at 3,000' AGL
  • Broken at 4,000' AGL
  • Light Rain
TAF AMD YMAV 190459Z 1905/2006 01016G26KT CAVOK FM191400 26018G34KT 9999 -SHRA SCT090 FM191600 25016KT 9999 -SHRA SCT020 BKN090 FM192300 25014KT 9999 -SHRA FEW025 BKN040 FM200300 18016KT 9999 -SHRA SCT030 BKN040 INTER 1916/1921 4000 SHRA BKN020
Issued Oct-19 @ 04:59 UTC
(4 hours ago)
Valid From Oct-19 @ 05:00 UTC
(4 hours ago)
Valid To Oct-20 @ 06:00 UTC
(in 21 hours)
Oct-19 @ 05:00 - Oct-19 @ 14:00
Wind Visibility
10° at 16 knots
 Gusting to 26 knots
10,000+ meters
Clouds
  • No significant clouds
Conditions
From Oct-19 @ 14:00 - Oct-19 @ 16:00
Wind Visibility
260° at 18 knots
 Gusting to 34 knots
10,000+ meters
Clouds
  • Scattered at 9,000' AGL
Conditions
  • Light Rain
Temporary Oct-19 @ 16:00 - Oct-19 @ 21:00
Clouds
  • Broken at 2,000' AGL
Conditions
  • Rain
From Oct-19 @ 16:00 - Oct-19 @ 23:00
Wind Visibility
250° at 16 knots 10,000+ meters
Clouds
  • Scattered at 2,000' AGL
  • Broken at 9,000' AGL
Conditions
  • Light Rain
From Oct-19 @ 23:00 - Oct-20 @ 03:00
Wind Visibility
250° at 14 knots 10,000+ meters
Clouds
  • Few at 2,500' AGL
  • Broken at 4,000' AGL
Conditions
  • Light Rain
From Oct-20 @ 03:00 - Oct-20 @ 06:00
Wind Visibility
180° at 16 knots 10,000+ meters
Clouds
  • Scattered at 3,000' AGL
  • Broken at 4,000' AGL
Conditions
  • Light Rain